Sewickley, Pennsylvania
Current Conditions -  °F | °C
As of 10:51 PM on Saturday 25 Oct 2014 (Local Time) from KPIT Reporting Station
Clear Clear  
Wind Chill: 59°   Ceiling: Unl
Heat Index: 59°   Visibility: 10mi
Dew Point: 38°   Wind: 20mph
Humidity: 46%   Direction: 290°WNW
Pressure: 29.77"   Gusts: 31mph
Location:  40.54°N, 80.18°W
Report Text: KPIT 260251Z 29017G27KT 10SM CLR 15/03 A2977 RMK AO2 PK WND 28027/0251 SLP086 T01500033 51006
Loading
Personal Weather Stations






























Interactive Weather Map
Tropical Storm Tracking
New forecast layout! Learn more

10-Day Weather Forecast

Advertisements
Track Severe Weather on mobile